Airport ICAO


19:21 UTC

7°C

Scattered clouds


An affordable passengers' Moving Map for your aircraft. Made for the iPad and the iPhone
More information here

EGKB Biggin Hill


London UNITED KINGDOM   VFR


METAR EGKB 231850Z 07006KT 9999 SCT040 07/04 Q1032 0h31min

TAF EGKB 231701Z 2318/2322 08008KT 9999 FEW045 2h20min





NOTAMS

OPEN